Time;durP1;ratioP1;P1;durP2;ratioP2;P2;SDS_P1;SDS_P2;PMS_P1;PMS_P2;Temp;Humidity;BMP_temperature;BMP_pressure;BME280_temperature;BME280_humidity;BME280_pressure;Samples;Min_cycle;Max_cycle;Signal;HPM_P1;HPM_P2
2022/01/07 00:01:30;;;;;;;2.93;2.53;;;;;;;2.88;100.00;94531.84;4972006;28;20353;-60
2022/01/07 00:03:56;;;;;;;2.53;2.30;;;;;;;2.82;100.00;94533.88;4971832;28;20238;-61
2022/01/07 00:06:21;;;;;;;3.20;2.13;;;;;;;2.73;100.00;94540.22;4971829;28;20216;-61
2022/01/07 00:08:47;;;;;;;3.20;2.47;;;;;;;2.71;100.00;94529.47;4971535;28;20329;-63
2022/01/07 00:11:12;;;;;;;3.13;2.47;;;;;;;2.64;100.00;94530.72;4970425;28;20204;-62
2022/01/07 00:13:38;;;;;;;3.73;2.30;;;;;;;2.76;100.00;94535.03;4971485;28;20195;-62
2022/01/07 00:16:04;;;;;;;2.93;2.60;;;;;;;2.83;100.00;94548.06;4972002;28;20597;-62
2022/01/07 00:18:30;;;;;;;3.17;2.10;;;;;;;2.63;100.00;94544.13;4971391;28;20189;-62
2022/01/07 00:20:56;;;;;;;3.27;2.57;;;;;;;2.66;100.00;94551.50;4971777;28;20211;-62
2022/01/07 00:23:22;;;;;;;3.20;2.27;;;;;;;2.70;100.00;94545.44;4971673;28;20192;-62
2022/01/07 00:25:49;;;;;;;2.43;2.23;;;;;;;2.73;100.00;94560.28;4971488;28;20227;-61
2022/01/07 00:28:15;;;;;;;2.37;2.13;;;;;;;2.81;100.00;94558.16;4969945;28;20180;-59
2022/01/07 00:30:40;;;;;;;3.17;2.50;;;;;;;2.82;100.00;94554.78;4971440;28;20207;-62
2022/01/07 00:33:12;;;;;;;2.63;2.40;;;;;;;2.72;100.00;94548.66;4971413;28;20194;-62
2022/01/07 00:35:38;;;;;;;3.23;2.23;;;;;;;2.62;100.00;94552.56;4970869;28;20406;-62
2022/01/07 00:38:11;;;;;;;4.90;2.37;;;;;;;2.61;100.00;94545.91;4971059;28;20267;-62
2022/01/07 00:40:36;;;;;;;3.90;2.50;;;;;;;2.68;100.00;94542.19;4971267;28;20208;-59
2022/01/07 00:43:03;;;;;;;3.23;2.47;;;;;;;2.76;100.00;94560.13;4969867;28;20604;-63
2022/01/07 00:45:28;;;;;;;2.70;2.20;;;;;;;2.74;100.00;94551.06;4969718;28;20741;-63
2022/01/07 00:47:55;;;;;;;2.97;2.20;;;;;;;2.63;100.00;94548.38;4970955;28;20180;-62
2022/01/07 00:50:23;;;;;;;3.43;2.80;;;;;;;2.66;100.00;94564.06;4971157;28;20273;-62
2022/01/07 00:52:49;;;;;;;2.30;2.10;;;;;;;2.75;100.00;94568.53;4970825;28;20180;-62
2022/01/07 00:55:15;;;;;;;2.83;2.17;;;;;;;2.72;100.00;94570.41;4970627;28;20253;-61
2022/01/07 00:57:41;;;;;;;3.00;2.80;;;;;;;2.70;100.00;94572.22;4970858;28;20191;-61
2022/01/07 01:00:10;;;;;;;3.13;2.40;;;;;;;2.62;100.00;94582.69;4970839;28;20211;-59
2022/01/07 01:02:36;;;;;;;3.00;2.70;;;;;;;2.57;100.00;94574.59;4970650;28;20185;-59
2022/01/07 01:05:04;;;;;;;2.60;2.40;;;;;;;2.65;100.00;94585.00;4970649;28;20545;-61
2022/01/07 01:07:30;;;;;;;2.80;2.60;;;;;;;2.55;100.00;94581.38;4970542;28;20184;-62
2022/01/07 01:09:55;;;;;;;3.73;2.20;;;;;;;2.54;100.00;94594.84;4970449;28;20283;-61
2022/01/07 01:12:22;;;;;;;3.77;2.57;;;;;;;2.50;100.00;94568.31;4970701;28;20188;-63
2022/01/07 01:14:47;;;;;;;3.20;2.70;;;;;;;2.52;100.00;94569.03;4970442;28;20204;-62
2022/01/07 01:17:13;;;;;;;3.63;2.63;;;;;;;2.52;100.00;94581.56;4970499;28;20192;-61
2022/01/07 01:19:38;;;;;;;5.37;2.67;;;;;;;2.53;100.00;94578.16;4970278;28;20573;-63
2022/01/07 01:22:04;;;;;;;3.93;2.30;;;;;;;2.47;100.00;94573.47;4970246;28;20184;-62
2022/01/07 01:24:31;;;;;;;2.83;2.23;;;;;;;2.58;100.00;94583.75;4970239;28;20638;-62
2022/01/07 01:26:56;;;;;;;3.00;2.40;;;;;;;2.44;100.00;94579.47;4970570;28;20664;-61
2022/01/07 01:29:22;;;;;;;2.53;2.30;;;;;;;2.44;100.00;94569.41;4970308;28;20264;-62
2022/01/07 01:31:48;;;;;;;3.73;2.30;;;;;;;2.46;100.00;94576.88;4968955;28;20206;-61
2022/01/07 01:34:15;;;;;;;3.13;2.37;;;;;;;2.46;100.00;94571.88;4970126;28;20245;-62
2022/01/07 01:36:41;;;;;;;3.93;2.63;;;;;;;2.50;100.00;94573.31;4970775;28;20188;-63
2022/01/07 01:39:07;;;;;;;3.37;2.43;;;;;;;2.39;100.00;94586.44;4970074;28;20186;-61
2022/01/07 01:41:34;;;;;;;4.43;2.97;;;;;;;2.41;100.00;94574.63;4977551;23;20693;-62
2022/01/07 01:43:59;;;;;;;2.97;2.53;;;;;;;2.46;100.00;94570.16;4970177;28;20211;-62
2022/01/07 01:46:25;;;;;;;4.63;3.10;;;;;;;2.34;100.00;94570.03;4968443;28;20212;-59
2022/01/07 01:48:51;;;;;;;5.00;3.30;;;;;;;2.31;100.00;94573.50;4970249;28;20219;-62
2022/01/07 01:51:17;;;;;;;4.23;3.00;;;;;;;2.33;100.00;94570.91;4970289;28;20224;-59
2022/01/07 01:53:42;;;;;;;3.40;2.73;;;;;;;2.35;100.00;94569.94;4968662;28;20203;-61
2022/01/07 01:56:08;;;;;;;3.27;2.50;;;;;;;2.33;100.00;94578.44;4970016;28;20248;-60
2022/01/07 01:58:34;;;;;;;3.97;2.60;;;;;;;2.36;100.00;94583.28;4969965;28;20272;-60
2022/01/07 02:01:00;;;;;;;4.30;2.80;;;;;;;2.39;100.00;94585.63;4969992;28;20279;-61
2022/01/07 02:03:26;;;;;;;3.00;2.47;;;;;;;2.40;100.00;94594.78;4969711;28;20238;-62
2022/01/07 02:05:54;;;;;;;3.40;2.37;;;;;;;2.35;100.00;94579.97;4970060;28;20212;-62
2022/01/07 02:08:20;;;;;;;3.27;2.70;;;;;;;2.30;100.00;94571.09;4973836;28;20176;-61
2022/01/07 02:10:45;;;;;;;3.90;2.63;;;;;;;2.23;100.00;94590.66;4973407;28;20696;-61
2022/01/07 02:13:11;;;;;;;2.57;2.33;;;;;;;2.17;100.00;94575.94;4973347;28;20184;-63
2022/01/07 02:15:37;;;;;;;3.33;2.47;;;;;;;2.21;100.00;94579.09;4974008;28;20206;-61
2022/01/07 02:18:03;;;;;;;4.37;2.90;;;;;;;2.22;100.00;94583.22;4973305;28;20582;-62
2022/01/07 02:20:29;;;;;;;3.77;2.93;;;;;;;2.32;100.00;94595.16;4973459;28;20314;-62
2022/01/07 02:22:56;;;;;;;4.50;2.97;;;;;;;2.29;100.00;94597.03;4973193;28;20310;-62
2022/01/07 02:25:22;;;;;;;2.87;2.40;;;;;;;2.22;100.00;94591.53;4973083;28;20613;-61
2022/01/07 02:27:48;;;;;;;3.67;2.77;;;;;;;2.25;100.00;94595.59;4973119;28;20255;-62
2022/01/07 02:30:17;;;;;;;3.80;2.30;;;;;;;2.26;100.00;94597.22;4973630;28;20285;-63
2022/01/07 02:32:43;;;;;;;3.70;2.63;;;;;;;2.37;100.00;94599.94;4974279;28;20196;-61
2022/01/07 02:35:09;;;;;;;2.20;2.00;;;;;;;2.27;100.00;94616.38;4973065;28;20235;-61
2022/01/07 02:37:36;;;;;;;2.60;2.40;;;;;;;2.26;100.00;94603.03;4973305;28;20196;-64
2022/01/07 02:40:04;;;;;;;3.80;3.00;;;;;;;2.40;100.00;94602.31;4971590;28;20597;-59
2022/01/07 02:42:29;;;;;;;4.20;2.50;;;;;;;2.29;100.00;94609.56;4973242;28;20504;-62
2022/01/07 02:44:55;;;;;;;3.73;2.53;;;;;;;2.24;100.00;94624.06;4972511;28;20269;-62
2022/01/07 02:47:21;;;;;;;4.20;2.90;;;;;;;2.18;100.00;94611.88;4971448;28;20301;-61
2022/01/07 02:49:48;;;;;;;3.33;2.60;;;;;;;2.19;100.00;94608.44;4972904;28;20208;-60
2022/01/07 02:52:13;;;;;;;4.27;2.50;;;;;;;2.16;100.00;94616.16;4973078;28;20192;-62
2022/01/07 02:54:39;;;;;;;4.70;2.67;;;;;;;2.20;100.00;94627.63;4972460;28;20207;-62
2022/01/07 02:57:04;;;;;;;3.33;2.43;;;;;;;2.11;100.00;94621.41;4972572;28;20561;-60
2022/01/07 02:59:30;;;;;;;3.20;2.33;;;;;;;1.97;100.00;94611.28;4970994;28;20576;-62
2022/01/07 03:01:55;;;;;;;3.93;2.93;;;;;;;2.09;100.00;94610.66;4972508;28;20199;-62
2022/01/07 03:04:23;;;;;;;3.47;3.00;;;;;;;2.20;100.00;94630.94;4971205;28;20267;-62
2022/01/07 03:06:49;;;;;;;4.10;3.07;;;;;;;2.16;100.00;94621.16;4972662;28;20222;-63
2022/01/07 03:09:14;;;;;;;5.67;3.50;;;;;;;2.15;100.00;94617.84;4955118;28;20185;-61
2022/01/07 03:11:40;;;;;;;3.57;2.60;;;;;;;2.10;100.00;94614.75;4972724;28;20200;-61
2022/01/07 03:14:06;;;;;;;3.23;2.57;;;;;;;2.16;100.00;94629.47;4971073;28;20243;-60
2022/01/07 03:16:32;;;;;;;4.57;2.87;;;;;;;2.12;100.00;94617.19;4970997;28;20712;-62
2022/01/07 03:18:57;;;;;;;3.67;2.73;;;;;;;2.13;100.00;94624.63;4972392;28;20529;-61
2022/01/07 03:21:23;;;;;;;2.63;2.10;;;;;;;2.13;100.00;94623.81;4972229;28;20214;-62
2022/01/07 03:23:48;;;;;;;3.27;2.30;;;;;;;2.10;100.00;94624.00;4972202;28;20680;-62
2022/01/07 03:26:14;;;;;;;4.30;2.90;;;;;;;2.10;100.00;94641.53;4972164;28;20220;-61
2022/01/07 03:28:40;;;;;;;4.03;3.00;;;;;;;2.01;100.00;94627.78;4970833;28;20720;-61
2022/01/07 03:31:06;;;;;;;5.03;2.90;;;;;;;2.11;100.00;94635.63;4972219;28;20264;-61
2022/01/07 03:33:32;;;;;;;5.47;3.47;;;;;;;1.99;100.00;94628.75;4970626;28;20180;-63
2022/01/07 03:35:57;;;;;;;4.87;3.07;;;;;;;2.03;100.00;94627.69;4970849;28;20222;-62
2022/01/07 03:38:23;;;;;;;3.50;2.37;;;;;;;2.01;100.00;94624.47;4972057;28;20238;-63
2022/01/07 03:40:49;;;;;;;4.30;2.90;;;;;;;2.04;100.00;94625.09;4972038;28;20653;-62
2022/01/07 03:43:15;;;;;;;3.93;3.20;;;;;;;2.10;100.00;94634.03;4971921;28;20575;-62
2022/01/07 03:45:41;;;;;;;6.13;3.43;;;;;;;2.17;100.00;94640.31;4971896;28;20266;-62
2022/01/07 03:48:07;;;;;;;3.97;2.70;;;;;;;2.20;100.00;94640.16;4971839;28;20180;-62
2022/01/07 03:50:34;;;;;;;3.43;2.90;;;;;;;2.13;100.00;94638.84;4971688;28;20677;-63
2022/01/07 03:53:00;;;;;;;3.20;2.63;;;;;;;2.08;100.00;94643.31;4970853;28;20343;-62
2022/01/07 03:55:28;;;;;;;6.90;2.63;;;;;;;2.17;100.00;94652.84;4971616;28;20269;-62
2022/01/07 03:57:54;;;;;;;3.60;2.73;;;;;;;2.21;100.00;94652.63;4970891;28;20231;-59
2022/01/07 04:00:26;;;;;;;3.47;2.57;;;;;;;2.31;100.00;94647.91;4971885;28;20261;-62
2022/01/07 04:02:52;;;;;;;4.10;2.90;;;;;;;2.23;100.00;94650.03;4971464;28;20195;-61
2022/01/07 04:05:22;;;;;;;3.70;2.80;;;;;;;2.29;100.00;94657.22;4971502;28;20216;-60
2022/01/07 04:07:49;;;;;;;3.70;2.77;;;;;;;2.19;100.00;94648.56;4970661;28;20204;-59
2022/01/07 04:10:14;;;;;;;4.00;3.07;;;;;;;2.13;100.00;94652.22;4971569;28;20204;-62
2022/01/07 04:12:40;;;;;;;3.83;2.80;;;;;;;2.21;100.00;94655.13;4971918;28;20199;-59
2022/01/07 04:15:09;;;;;;;4.53;3.20;;;;;;;2.07;100.00;94659.22;4971594;28;20211;-61
2022/01/07 04:17:36;;;;;;;4.43;3.03;;;;;;;2.10;100.00;94661.59;4969982;28;20653;-61
2022/01/07 04:20:04;;;;;;;3.97;3.27;;;;;;;2.14;100.00;94670.56;4978883;23;20232;-61
2022/01/07 04:22:29;;;;;;;4.47;3.00;;;;;;;2.30;100.00;94673.91;4971373;28;20187;-62
2022/01/07 04:24:55;;;;;;;4.93;3.53;;;;;;;2.25;100.00;94681.66;4971665;28;20212;-64
2022/01/07 04:27:20;;;;;;;5.33;3.37;;;;;;;2.18;100.00;94675.31;4971703;28;20551;-62
2022/01/07 04:29:46;;;;;;;4.97;3.47;;;;;;;2.17;100.00;94680.44;4970667;28;20220;-63
2022/01/07 04:32:11;;;;;;;4.03;3.63;;;;;;;2.28;100.00;94688.22;4970207;28;20180;-62
2022/01/07 04:34:37;;;;;;;4.83;3.50;;;;;;;2.28;100.00;94688.22;4971706;28;20669;-61
2022/01/07 04:37:03;;;;;;;3.77;2.87;;;;;;;2.22;100.00;94681.81;4971226;28;20183;-62
2022/01/07 04:39:28;;;;;;;5.30;3.77;;;;;;;2.25;100.00;94684.16;4969992;28;20185;-62
2022/01/07 04:41:55;;;;;;;7.10;3.70;;;;;;;2.25;100.00;94686.66;4971108;28;20188;-61
2022/01/07 04:44:21;;;;;;;4.70;3.33;;;;;;;2.30;100.00;94678.91;4971306;28;20200;-59
2022/01/07 04:46:47;;;;;;;6.00;3.87;;;;;;;2.30;100.00;94686.44;4971180;28;20212;-59
2022/01/07 04:49:12;;;;;;;5.07;3.73;;;;;;;2.39;100.00;94684.25;4971178;28;20191;-59
2022/01/07 04:51:37;;;;;;;7.63;4.57;;;;;;;2.37;100.00;94685.22;4969917;28;20205;-62
2022/01/07 04:54:03;;;;;;;7.63;3.77;;;;;;;2.34;100.00;94688.69;4971028;28;20599;-61
2022/01/07 04:56:28;;;;;;;4.40;3.43;;;;;;;2.42;100.00;94693.31;4969539;28;20209;-62
2022/01/07 04:58:54;;;;;;;5.03;3.70;;;;;;;2.29;100.00;94688.13;4970850;28;20184;-59
2022/01/07 05:01:19;;;;;;;7.87;4.20;;;;;;;2.42;100.00;94699.13;4970790;28;20189;-62
2022/01/07 05:03:45;;;;;;;8.10;3.93;;;;;;;2.41;100.00;94694.19;4970767;28;20229;-62
2022/01/07 05:06:43;;;;;;;5.03;3.83;;;;;;;2.32;100.00;94684.66;4970841;28;20619;-62
2022/01/07 05:08:56;;;;;;;6.03;4.17;;;;;;;2.39;100.00;94694.28;4970702;28;20284;-61
2022/01/07 05:11:21;;;;;;;7.17;3.80;;;;;;;2.38;100.00;94695.16;4970451;28;20232;-62
2022/01/07 05:13:46;;;;;;;6.57;3.43;;;;;;;2.24;100.00;94680.03;4970622;28;20199;-61
2022/01/07 05:16:12;;;;;;;6.13;4.13;;;;;;;2.38;100.00;94697.66;4970430;28;20233;-61
2022/01/07 05:18:37;;;;;;;8.57;4.90;;;;;;;2.33;100.00;94686.25;4970239;28;20177;-61
2022/01/07 05:21:03;;;;;;;7.20;3.93;;;;;;;2.29;100.00;94700.66;4970641;28;20697;-62
2022/01/07 05:23:28;;;;;;;8.93;4.87;;;;;;;2.48;100.00;94695.50;4970303;28;20275;-62
2022/01/07 05:25:54;;;;;;;8.50;4.10;;;;;;;2.65;100.00;94707.16;4970623;28;20602;-62
2022/01/07 05:28:19;;;;;;;5.80;3.97;;;;;;;2.62;100.00;94708.13;4970355;28;20276;-61
2022/01/07 05:30:45;;;;;;;7.73;4.33;;;;;;;2.46;100.00;94710.59;4968827;28;20204;-59
2022/01/07 05:33:10;;;;;;;6.10;4.00;;;;;;;2.34;100.00;94703.72;4970394;28;20563;-65
2022/01/07 05:35:35;;;;;;;5.33;3.70;;;;;;;2.32;100.00;94702.22;4970122;28;20215;-64
2022/01/07 05:38:01;;;;;;;7.17;3.90;;;;;;;2.46;100.00;94707.31;4970323;28;20180;-63
2022/01/07 05:40:34;;;;;;;5.93;4.17;;;;;;;2.31;100.00;94700.59;4969932;28;20241;-61
2022/01/07 05:43:00;;;;;;;6.03;4.10;;;;;;;2.24;100.00;94695.06;4967748;28;20267;-62
2022/01/07 05:45:25;;;;;;;5.93;4.40;;;;;;;2.34;100.00;94695.41;4969706;28;20643;-62
2022/01/07 05:47:50;;;;;;;6.57;4.40;;;;;;;2.26;100.00;94705.03;4970135;28;20184;-63
2022/01/07 05:50:16;;;;;;;6.07;4.00;;;;;;;2.28;100.00;94701.53;4969759;28;20699;-63
2022/01/07 05:52:41;;;;;;;8.37;4.80;;;;;;;2.33;100.00;94706.31;4969901;28;20176;-61
2022/01/07 05:55:07;;;;;;;6.80;4.20;;;;;;;2.44;100.00;94721.63;4969628;28;20211;-61
2022/01/07 05:57:33;;;;;;;6.13;4.93;;;;;;;2.32;100.00;94725.56;4970201;28;20183;-62
2022/01/07 05:59:59;;;;;;;8.27;4.77;;;;;;;2.29;100.00;94720.72;4968895;28;20215;-59
2022/01/07 06:02:24;;;;;;;7.20;4.47;;;;;;;2.25;100.00;94723.47;4969984;28;20184;-62
2022/01/07 06:04:50;;;;;;;7.80;5.37;;;;;;;2.37;100.00;94727.84;4970320;28;20204;-62
2022/01/07 06:07:15;;;;;;;6.33;4.47;;;;;;;2.35;100.00;94724.59;4969933;28;20618;-61
2022/01/07 06:09:41;;;;;;;6.60;4.23;;;;;;;2.34;100.00;94730.53;4969883;28;20716;-62
2022/01/07 06:12:07;;;;;;;9.07;4.83;;;;;;;2.18;100.00;94727.19;4969689;28;20652;-62
2022/01/07 06:14:32;;;;;;;8.40;4.83;;;;;;;2.28;100.00;94728.34;4968308;28;20305;-61
2022/01/07 06:16:57;;;;;;;8.17;5.13;;;;;;;2.34;100.00;94726.31;4969816;28;20184;-61
2022/01/07 06:19:23;;;;;;;7.97;4.77;;;;;;;2.34;100.00;94733.03;4969727;28;20199;-62
2022/01/07 06:21:48;;;;;;;7.97;4.70;;;;;;;2.36;100.00;94736.28;4969871;28;20204;-62
2022/01/07 06:24:14;;;;;;;7.97;5.70;;;;;;;2.51;100.00;94746.31;4969750;28;20592;-62
2022/01/07 06:26:39;;;;;;;7.90;4.93;;;;;;;2.43;100.00;94753.44;4969788;28;20602;-63
2022/01/07 06:29:05;;;;;;;9.23;5.23;;;;;;;2.35;100.00;94747.19;4969687;28;20672;-64
2022/01/07 06:31:31;;;;;;;8.80;5.07;;;;;;;2.35;100.00;94739.66;4968365;28;20212;-63
2022/01/07 06:33:58;;;;;;;8.73;4.80;;;;;;;2.46;100.00;94745.72;4969953;28;20195;-62
2022/01/07 06:36:24;;;;;;;8.17;4.70;;;;;;;2.50;100.00;94751.41;4969542;28;20701;-62
2022/01/07 06:38:49;;;;;;;9.17;4.90;;;;;;;2.42;100.00;94746.00;4969745;28;20191;-62
2022/01/07 06:41:15;;;;;;;12.17;5.83;;;;;;;2.39;100.00;94746.13;4969706;28;20592;-59
2022/01/07 06:43:40;;;;;;;9.80;5.07;;;;;;;2.49;100.00;94752.28;4969604;28;20194;-59
2022/01/07 06:46:06;;;;;;;10.47;5.40;;;;;;;2.49;100.00;94758.13;4969363;28;20219;-62
2022/01/07 06:48:32;;;;;;;14.20;5.97;;;;;;;2.41;100.00;94759.41;4969549;28;20184;-61
2022/01/07 06:50:57;;;;;;;10.77;5.60;;;;;;;2.43;100.00;94753.44;4969492;28;20585;-63
2022/01/07 06:53:22;;;;;;;9.03;5.43;;;;;;;2.62;100.00;94763.31;4970675;28;20611;-59
2022/01/07 06:55:48;;;;;;;9.70;5.83;;;;;;;2.42;100.00;94759.31;4973284;28;20218;-62
2022/01/07 06:58:15;;;;;;;9.43;6.17;;;;;;;2.47;100.00;94761.59;4971605;28;20243;-63
2022/01/07 07:00:40;;;;;;;15.37;5.80;;;;;;;2.44;100.00;94764.28;4973280;28;20204;-63
2022/01/07 07:03:06;;;;;;;10.53;5.97;;;;;;;2.52;100.00;94764.69;4972864;28;20659;-63
2022/01/07 07:05:31;;;;;;;10.90;5.93;;;;;;;2.59;100.00;94758.44;4972940;28;20656;-59
2022/01/07 07:07:57;;;;;;;10.07;5.83;;;;;;;2.54;100.00;94766.22;4972423;28;20241;-63
2022/01/07 07:10:22;;;;;;;11.83;6.00;;;;;;;2.63;100.00;94769.16;4978463;23;20327;-62
2022/01/07 07:12:48;;;;;;;10.23;6.50;;;;;;;2.53;100.00;94771.31;4972688;28;20181;-62
2022/01/07 07:15:13;;;;;;;12.20;5.93;;;;;;;2.37;100.00;94753.75;4972153;28;20201;-62
2022/01/07 07:17:39;;;;;;;10.57;6.77;;;;;;;2.40;100.00;94757.81;4972320;28;20180;-59
2022/01/07 07:20:04;;;;;;;11.60;6.07;;;;;;;2.49;100.00;94760.63;4972622;28;20247;-62
2022/01/07 07:22:30;;;;;;;10.07;5.77;;;;;;;2.51;100.00;94760.56;4970837;28;20577;-61
2022/01/07 07:24:56;;;;;;;8.03;5.57;;;;;;;2.59;100.00;94765.19;4972347;28;20245;-62
2022/01/07 07:27:21;;;;;;;11.63;6.77;;;;;;;2.53;100.00;94763.78;4972005;28;20181;-62
2022/01/07 07:29:47;;;;;;;10.70;6.43;;;;;;;2.55;100.00;94762.81;4971772;28;20213;-62
2022/01/07 07:32:15;;;;;;;10.13;5.87;;;;;;;2.73;100.00;94771.09;4971047;28;20188;-63
2022/01/07 07:37:13;;;;;;;10.87;6.33;;;;;;;2.78;100.00;94775.88;4972056;28;20176;-62
2022/01/07 07:39:38;;;;;;;10.37;6.47;;;;;;;2.62;100.00;94768.34;4971371;28;20208;-62
2022/01/07 07:42:04;;;;;;;8.13;5.97;;;;;;;2.65;100.00;94773.19;4971838;28;20198;-62
2022/01/07 07:44:30;;;;;;;11.60;6.50;;;;;;;2.69;100.00;94774.66;4971985;28;20188;-62
2022/01/07 07:46:55;;;;;;;10.57;6.80;;;;;;;2.79;100.00;94775.78;4971813;28;20209;-63
2022/01/07 07:49:21;;;;;;;9.97;5.80;;;;;;;2.90;100.00;94778.53;4971940;28;20751;-63
2022/01/07 07:51:46;;;;;;;9.73;5.90;;;;;;;2.91;100.00;94776.84;4970533;28;20259;-60
2022/01/07 07:54:12;;;;;;;10.67;6.40;;;;;;;2.86;100.00;94777.09;4970085;28;20715;-61
2022/01/07 07:56:38;;;;;;;10.03;6.60;;;;;;;2.99;100.00;94778.03;4970477;28;20568;-62
2022/01/07 07:59:04;;;;;;;10.13;7.20;;;;;;;2.93;100.00;94790.13;4970033;28;20185;-64
2022/01/07 08:01:30;;;;;;;9.43;6.10;;;;;;;3.03;100.00;94794.56;4970278;28;20303;-62
2022/01/07 08:03:56;;;;;;;9.57;5.73;;;;;;;2.92;100.00;94793.53;4971176;28;20235;-63
2022/01/07 08:06:21;;;;;;;10.37;6.63;;;;;;;2.94;100.00;94795.06;4970992;28;20208;-62
2022/01/07 08:08:47;;;;;;;11.47;6.60;;;;;;;2.94;100.00;94782.50;4970146;28;20215;-62
2022/01/07 08:11:13;;;;;;;11.37;7.13;;;;;;;2.93;100.00;94790.13;4971876;28;20201;-63
2022/01/07 08:16:23;;;;;;;12.13;7.30;;;;;;;3.21;100.00;94797.81;4971578;28;20632;-63
2022/01/07 08:18:55;;;;;;;10.43;7.20;;;;;;;3.41;100.00;94803.34;4969914;28;20198;-65
2022/01/07 08:21:24;;;;;;;13.60;7.33;;;;;;;3.48;100.00;94805.53;4971541;28;20200;-64
2022/01/07 08:23:50;;;;;;;12.93;6.67;;;;;;;3.62;100.00;94803.88;4971447;28;20189;-63
2022/01/07 08:26:17;;;;;;;12.70;7.70;;;;;;;3.63;99.81;94807.22;4971271;28;20590;-63
2022/01/07 08:28:51;;;;;;;11.47;7.23;;;;;;;3.63;98.86;94808.03;4971103;28;20176;-63
2022/01/07 08:36:32;;;;;;;14.27;8.37;;;;;;;3.81;98.02;94796.13;4971566;28;20716;-63
2022/01/07 08:38:59;;;;;;;14.70;8.23;;;;;;;3.92;97.46;94803.88;4971359;28;20619;-63
2022/01/07 08:41:29;;;;;;;13.23;7.33;;;;;;;3.73;97.10;94795.75;4971010;28;20609;-62
2022/01/07 08:43:55;;;;;;;10.10;6.93;;;;;;;3.81;97.64;94791.09;4969460;28;20188;-62
2022/01/07 08:46:22;;;;;;;14.07;7.27;;;;;;;3.77;97.68;94779.59;4970990;28;20218;-62
2022/01/07 08:48:47;;;;;;;12.80;7.37;;;;;;;3.81;96.82;94789.41;4970918;28;20212;-62
2022/01/07 08:51:13;;;;;;;13.20;8.17;;;;;;;3.75;98.21;94774.66;4970769;28;20201;-61
2022/01/07 08:53:38;;;;;;;13.10;7.20;;;;;;;3.92;98.33;94777.00;4970767;28;20199;-63
2022/01/07 08:56:06;;;;;;;12.17;7.70;;;;;;;4.14;96.47;94787.47;4969386;28;20212;-61
2022/01/07 08:58:35;;;;;;;14.10;7.47;;;;;;;4.14;94.76;94794.22;4970597;28;20268;-64
2022/01/07 09:01:01;;;;;;;11.43;6.67;;;;;;;4.05;95.83;94782.16;4970591;28;20655;-64
2022/01/07 09:03:26;;;;;;;9.80;6.30;;;;;;;3.97;95.13;94782.59;4970481;28;20201;-62
2022/01/07 09:05:52;;;;;;;10.63;7.07;;;;;;;3.89;95.45;94774.69;4969218;28;20212;-64
2022/01/07 09:08:18;;;;;;;11.27;6.83;;;;;;;3.81;95.99;94763.44;4970621;28;20191;-61
2022/01/07 09:10:44;;;;;;;11.83;6.37;;;;;;;3.90;96.26;94771.25;4970945;28;20226;-60
2022/01/07 09:13:10;;;;;;;10.87;6.17;;;;;;;3.96;95.85;94775.16;4970701;28;20200;-62
2022/01/07 09:15:36;;;;;;;12.33;7.20;;;;;;;3.91;96.10;94764.53;4970790;28;20264;-59
2022/01/07 09:18:09;;;;;;;10.10;5.97;;;;;;;3.83;96.30;94766.69;4970466;28;20581;-60
2022/01/07 09:20:39;;;;;;;8.83;5.17;;;;;;;3.82;96.05;94755.81;4970935;28;20215;-63
2022/01/07 09:23:05;;;;;;;13.40;6.70;;;;;;;4.25;96.38;94754.16;4970423;28;20173;-63
2022/01/07 09:25:30;;;;;;;10.53;6.13;;;;;;;4.50;95.78;94753.50;4969353;28;20685;-62
2022/01/07 09:27:56;;;;;;;9.53;5.40;;;;;;;4.91;94.75;94765.22;4970526;28;20195;-63
2022/01/07 09:30:22;;;;;;;9.73;5.57;;;;;;;4.86;90.02;94806.69;4970845;28;20216;-59
2022/01/07 09:32:47;;;;;;;9.17;4.97;;;;;;;4.77;88.73;94809.75;4970223;28;20327;-63
2022/01/07 09:35:14;;;;;;;7.23;4.27;;;;;;;4.53;90.76;94779.28;4970651;28;20223;-62
2022/01/07 09:37:40;;;;;;;8.87;5.33;;;;;;;4.54;89.85;94787.66;4970226;28;20184;-64
2022/01/07 09:40:06;;;;;;;7.97;5.10;;;;;;;4.54;90.00;94775.91;4970544;28;20224;-63
2022/01/07 09:42:31;;;;;;;11.20;5.50;;;;;;;4.55;90.73;94772.47;4970150;28;20186;-60
2022/01/07 09:44:57;;;;;;;9.17;5.27;;;;;;;4.61;89.95;94771.28;4970385;28;20204;-60
2022/01/07 09:47:23;;;;;;;9.17;5.30;;;;;;;4.57;90.07;94759.78;4969979;28;20179;-59
2022/01/07 09:49:49;;;;;;;13.17;5.60;;;;;;;4.51;90.23;94755.13;4968900;28;20230;-62
2022/01/07 09:52:15;;;;;;;11.30;6.30;;;;;;;4.70;90.13;94756.47;4968932;28;20273;-62
2022/01/07 09:54:41;;;;;;;12.83;7.03;;;;;;;4.98;88.98;94758.09;4969850;28;20700;-62
2022/01/07 09:57:08;;;;;;;16.23;7.30;;;;;;;5.15;88.48;94773.00;4970398;28;20193;-60
2022/01/07 09:59:34;;;;;;;9.77;6.73;;;;;;;5.13;87.32;94768.03;4970204;28;20210;-63
2022/01/07 10:02:01;;;;;;;10.07;7.07;;;;;;;5.18;86.93;94777.84;4970175;28;20197;-63
2022/01/07 10:04:29;;;;;;;10.20;6.93;;;;;;;5.35;85.78;94780.13;4970072;28;20187;-63
2022/01/07 10:07:20;;;;;;;10.40;6.27;;;;;;;5.25;85.70;94783.31;4969897;28;20234;-63
2022/01/07 10:10:10;;;;;;;11.83;6.43;;;;;;;4.97;86.34;94772.41;4969660;28;20232;-62
2022/01/07 10:12:53;;;;;;;13.70;7.70;;;;;;;5.01;87.56;94755.38;4968406;28;20269;-62
2022/01/07 10:15:19;;;;;;;11.43;7.40;;;;;;;4.91;88.48;94740.03;4968544;28;20577;-63
2022/01/07 10:17:59;;;;;;;11.00;6.87;;;;;;;4.70;88.71;94743.06;4969739;28;20660;-60
2022/01/07 10:20:37;;;;;;;18.30;7.60;;;;;;;4.78;88.53;94739.19;4969906;28;20221;-59
2022/01/07 10:23:15;;;;;;;12.27;7.03;;;;;;;5.04;87.45;94752.69;4969596;28;20167;-61
2022/01/07 10:25:45;;;;;;;10.40;6.63;;;;;;;5.32;86.74;94760.16;4970023;28;20218;-59
2022/01/07 10:28:15;;;;;;;12.97;6.70;;;;;;;5.27;85.95;94771.41;4970546;28;20177;-60
2022/01/07 10:30:51;;;;;;;11.43;6.00;;;;;;;5.16;85.96;94758.66;4972848;28;20208;-59
2022/01/07 10:33:29;;;;;;;10.67;6.33;;;;;;;5.38;85.14;94763.97;4971814;28;20188;-60
2022/01/07 10:36:07;;;;;;;9.30;6.00;;;;;;;5.49;83.99;94772.50;4972873;28;20217;-59
2022/01/07 10:38:35;;;;;;;10.00;6.17;;;;;;;5.63;83.48;94769.09;4971719;28;20201;-59
2022/01/07 10:41:02;;;;;;;13.73;7.40;;;;;;;5.81;82.47;94775.50;4972864;28;20290;-60
2022/01/07 10:43:35;;;;;;;8.17;5.67;;;;;;;5.67;82.76;94760.44;4972797;28;20190;-59
2022/01/07 10:46:24;;;;;;;6.73;4.83;;;;;;;5.75;82.26;94764.09;4972717;28;20206;-64
2022/01/07 10:48:53;;;;;;;9.97;5.60;;;;;;;5.92;80.49;94789.06;4973088;28;20182;-60
2022/01/07 10:51:25;;;;;;;7.93;5.33;;;;;;;5.81;80.47;94778.00;4971451;28;20637;-60
2022/01/07 10:53:58;;;;;;;9.37;5.47;;;;;;;5.81;80.10;94783.06;4972828;28;20187;-62
2022/01/07 10:56:35;;;;;;;9.37;5.10;;;;;;;5.87;79.88;94778.47;4972703;28;20204;-59
2022/01/07 10:59:06;;;;;;;11.90;5.77;;;;;;;6.17;78.36;94800.91;4972849;28;20645;-60
2022/01/07 11:01:36;;;;;;;10.20;5.67;;;;;;;6.18;77.71;94799.19;4972806;28;20269;-59
2022/01/07 11:04:04;;;;;;;10.47;6.10;;;;;;;6.21;78.21;94778.78;4972969;28;20279;-63
2022/01/07 11:06:30;;;;;;;9.33;5.93;;;;;;;6.22;78.35;94776.16;4972589;28;20698;-60
2022/01/07 11:08:57;;;;;;;11.80;6.10;;;;;;;6.42;76.61;94793.31;4972745;28;20273;-59
2022/01/07 11:11:24;;;;;;;11.30;6.27;;;;;;;6.48;76.37;94790.41;4972913;28;20305;-61
2022/01/07 11:13:57;;;;;;;8.90;6.53;;;;;;;6.42;76.88;94780.69;4972442;28;20195;-62
2022/01/07 11:16:22;;;;;;;10.77;6.60;;;;;;;6.77;73.81;94828.84;4972649;28;20219;-62
2022/01/07 11:18:56;;;;;;;9.57;6.27;;;;;;;6.68;74.00;94806.75;4971323;28;20264;-62
2022/01/07 11:21:22;;;;;;;11.27;6.70;;;;;;;6.65;74.87;94786.72;4971058;28;20212;-59
2022/01/07 11:23:47;;;;;;;11.67;6.37;;;;;;;6.41;75.61;94766.47;4972339;28;20191;-61
2022/01/07 11:26:16;;;;;;;9.53;6.63;;;;;;;6.61;74.78;94780.28;4972003;28;20736;-63
2022/01/07 11:29:00;;;;;;;10.20;6.10;;;;;;;6.72;73.63;94783.72;4972115;28;20184;-62
2022/01/07 11:31:27;;;;;;;10.87;6.33;;;;;;;6.93;72.83;94795.78;4970939;28;20207;-63
2022/01/07 11:34:31;;;;;;;10.83;6.20;;;;;;;7.04;72.69;94808.50;4972127;28;20313;-63
2022/01/07 11:36:57;;;;;;;8.97;6.53;;;;;;;6.85;73.49;94771.03;5011964;28;20197;-61
2022/01/07 11:39:22;;;;;;;9.07;6.50;;;;;;;6.72;74.25;94752.59;5010576;28;20269;-60
2022/01/07 11:41:57;;;;;;;10.47;6.67;;;;;;;6.94;72.71;94782.22;4993223;28;20203;-59
2022/01/07 11:44:32;;;;;;;13.00;6.90;;;;;;;6.20;75.16;94735.06;4972091;28;20184;-62